• Join FlightAware (Why Join?)
  • Login
  • US Flag 
03:29AM EDT


 

Airport Tracker/Info


-or-


 

Live Flight TrackerFlight Track Log ✈ RPA3228 ✈ 07-Nov-2013 ✈ KBNA - KDCA

Flight Track Log - Related Links

Times and Time Zones

All times are in EST time to prevent confusion due to time zone crossing. See the RPA3228 flight status page for this flight to view local times or setup timezone preferences in your user account.

Time Position Orientation Groundspeed Altitude Reporting Facility
EST Latitude Longitude Course Direction KTS MPH feet Rate Location/Type
07:08AM 36.1333 -86.6833 68° East 154 177 1,400  Level Nashville TRACON
07:09AM 36.1333 -86.7500 270° West 207 238 3,400 2,220 Climbing Nashville TRACON
07:10AM 36.0833 -86.7167 152° Southeast 285 328 5,700 2,460 Climbing Nashville TRACON
07:11AM 36.2387 -86.3351 80° East  Level Estimated
07:12AM 36.2766 -86.2205 64° Northeast  Level Estimated
07:12AM 36.1044 -86.5525 81° East 327 376 10,200  Level Memphis Center
07:13AM 36.3143 -86.1058 64° Northeast  Level Estimated
07:13AM 36.1281 -86.4408 75° East 327 376 13,100  Level Memphis Center
07:14AM 36.3520 -85.9910 68° East  Level Estimated
07:14AM 36.1511 -86.3189 77° East 350 403 15,800  Level Memphis Center
07:15AM 36.1783 -86.1914 75° East 376 433 17,800 2,040 Climbing Memphis Center
07:16AM 36.2131 -86.0483 73° East 410 472 19,900 1,920 Climbing Memphis Center
07:18AM 36.3322 -85.7728 62° Northeast 457 526 23,700 1,800 Climbing Indianapolis Center
07:19AM 36.4017 -85.6292 59° Northeast 474 545 25,600 1,800 Climbing Indianapolis Center
07:20AM 36.4722 -85.4794 60° Northeast 492 566 27,400 1,440 Climbing Indianapolis Center
07:21AM 36.5458 -85.3269 59° Northeast 506 582 28,600 1,200 Climbing Indianapolis Center
07:22AM 36.6181 -85.1614 61° Northeast 531 611 29,900 1,140 Climbing Indianapolis Center
07:23AM 36.6858 -84.9472 68° East 549 632 31,000 480 Climbing Indianapolis Center
07:24AM 36.7389 -84.7708 69° East 543 625 31,000  Level Indianapolis Center
07:25AM 36.7928 -84.5950 69° East 540 621 31,000  Level Indianapolis Center
07:26AM 36.8425 -84.4278 70° East 538 619 31,000  Level Indianapolis Center
07:27AM 36.8972 -84.2511 69° East 544 626 31,000  Level Indianapolis Center
07:28AM 36.9247 -84.0689 79° East 536 617 31,000  Level Indianapolis Center
07:29AM 36.9483 -83.8842 81° East 536 617 31,000  Level Indianapolis Center
07:30AM 36.9747 -83.7003 80° East 537 618 31,000  Level Indianapolis Center
07:31AM 36.9983 -83.5147 81° East 541 623 31,000  Level Indianapolis Center
07:32AM 37.0258 -83.3022 81° East 531 611 31,000  Level Indianapolis Center
07:33AM 37.0733 -83.1300 71° East 536 617 31,000  Level Indianapolis Center
07:34AM 37.1353 -82.9617 65° Northeast 535 616 31,000  Level Indianapolis Center
07:35AM 37.1969 -82.7917 65° Northeast 529 609 31,000  Level Indianapolis Center
07:37AM 37.2567 -82.6244 66° East 524 603 31,000  Level Indianapolis Center
07:38AM 37.3169 -82.4564 66° East 526 605 31,000  Level Indianapolis Center
07:39AM 37.3769 -82.2883 66° East 526 605 31,000  Level Indianapolis Center
07:40AM 37.4356 -82.1217 66° East 522 601 31,000  Level Indianapolis Center
07:41AM 37.5089 -81.9636 60° Northeast 523 602 31,000  Level Indianapolis Center
07:42AM 37.5858 -81.8081 58° Northeast 523 602 31,000  Level Indianapolis Center
07:43AM 37.6617 -81.6531 58° Northeast 520 598 31,000  Level Indianapolis Center
07:44AM 37.7275 -81.4717 65° Northeast 514 592 31,000  Level Indianapolis Center
07:45AM 37.7675 -81.3031 73° East 515 593 31,000  Level Indianapolis Center
07:46AM 37.8097 -81.1331 73° East 519 597 31,000  Level Indianapolis Center
07:47AM 37.8525 -80.9569 73° East 517 595 31,000  Level Indianapolis Center
07:48AM 37.9003 -80.7881 70° East 513 590 31,000  Level Indianapolis Center
07:49AM 37.9583 -80.6233 66° East 512 589 31,000  Level Indianapolis Center
07:50AM 38.0219 -80.4411 66° East 518 596 31,000  Level Indianapolis Center
07:51AM 38.0867 -80.2564 66° East 518 596 31,000  Level Indianapolis Center
07:52AM 38.1489 -80.0831 65° Northeast 518 596 31,000  Level Indianapolis Center
07:53AM 38.2056 -79.9203 66° East 517 595 31,000  Level Indianapolis Center
07:54AM 38.2628 -79.7578 66° East 514 592 31,000  Level Indianapolis Center
07:55AM 38.3200 -79.5942 66° East 516 594 31,000 -1,500 Level Indianapolis Center
07:56AM 38.3892 -79.3897 67° East 534 615 28,000 -1,860 Descending Indianapolis Center
07:57AM 38.4447 -79.1864 71° East 525 604 27,000 -480 Descending Washington Center
07:58AM 38.4792 -79.0078 76° East 520 598 27,000 -660 Level Washington Center
07:59AM 38.5050 -78.8258 80° East 520 598 25,800 -1,920 Descending Washington Center
08:00AM 38.5306 -78.6517 79° East 515 593 23,100 -2,040 Descending Washington Center
08:01AM 38.5575 -78.4883 78° East 494 568 21,700 -1,440 Descending Washington Center
08:02AM 38.5822 -78.3272 79° East 472 543 20,300 -1,800 Descending Washington Center
08:03AM 38.6208 -78.1744 72° East 458 527 18,200 -2,040 Descending Washington Center
08:04AM 38.6656 -78.0350 68° East 439 505 16,300 -1,980 Descending Washington Center
08:05AM 38.7100 -77.9008 67° East 417 480 14,300 -1,920 Descending Washington Center
08:06AM 38.7536 -77.7986 61° Northeast 386 444 12,500 -1,680 Descending Washington Center
08:07AM 38.8178 -77.6992 50° Northeast 366 421 11,000 -1,500 Descending Washington Center
08:08AM 38.8636 -77.5831 63° Northeast 335 386 9,600 -1,380 Descending Washington Center
08:09AM 38.8833 -77.5333 63° Northeast 324 373 9,000 -1,140 Descending Potomac TRACON
08:10AM 38.9000 -77.4333 78° East 289 333 7,900 -900 Descending Potomac TRACON
08:11AM 38.8667 -77.3500 117° Southeast 250 288 7,200 -480 Descending Potomac TRACON
08:12AM 38.8333 -77.2667 117° Southeast 246 283 7,000 -120 Descending Potomac TRACON
08:13AM 38.8000 -77.2000 123° Southeast 228 262 7,000  Level Potomac TRACON
08:14AM 38.7667 -77.1333 123° Southeast 226 260 7,000 -540 Level Potomac TRACON
08:14AM 38.7333 -77.1167 159° South 208 239 6,000 -960 Descending Potomac TRACON
08:15AM 38.6833 -77.1000 165° South 182 209 5,200 -900 Descending Potomac TRACON
08:16AM 38.6333 -77.1000 180° South 177 204 4,200 -1,080 Descending Potomac TRACON
08:17AM 38.6000 -77.0500 130° Southeast 206 237 3,100 -660 Descending Potomac TRACON
08:18AM 38.6167 -76.9833 72° East 220 253 3,000 -60 Descending Potomac TRACON
08:19AM 38.6667 -77.0000 345° North 180 207 3,000 -120 Level Potomac TRACON
08:20AM 38.7167 -77.0167 345° North 176 203 2,800 -780 Descending Potomac TRACON
08:21AM 38.7667 -77.0333 345° North 191 220 1,600 -1,080 Descending Potomac TRACON
08:22AM 38.8000 -77.0333 360° North 148 170 700 -900 Descending Potomac TRACON